createdAt,value
2022-12-09T00:00:25.317Z,97421.41
2022-12-09T00:02:52.151Z,97426.53
2022-12-09T00:05:18.879Z,97424.72
2022-12-09T00:07:45.465Z,97420.75
2022-12-09T00:10:12.354Z,97422.41
2022-12-09T00:12:38.886Z,97423.75
2022-12-09T00:15:05.707Z,97427.81
2022-12-09T00:17:32.354Z,97424.66
2022-12-09T00:19:58.853Z,97426.31
2022-12-09T00:22:26.853Z,97431.91
2022-12-09T00:24:53.360Z,97428.75
2022-12-09T00:27:19.944Z,97437.03
2022-12-09T00:29:46.410Z,97437.59
2022-12-09T00:32:13.771Z,97443.47
2022-12-09T00:34:40.329Z,97441.41
2022-12-09T00:37:07.035Z,97434.75
2022-12-09T00:39:33.673Z,97442.25
2022-12-09T00:42:00.388Z,97443.91
2022-12-09T00:44:27.115Z,97444.97
2022-12-09T00:46:53.672Z,97441.06
2022-12-09T00:49:20.679Z,97442.34
2022-12-09T00:51:47.399Z,97441.06
2022-12-09T00:54:14.416Z,97443.47
2022-12-09T00:56:41.203Z,97441.41
2022-12-09T00:59:07.992Z,97442.44
2022-12-09T01:01:34.572Z,97436.06
2022-12-09T01:04:02.516Z,97445.94
2022-12-09T01:06:29.279Z,97442.78
2022-12-09T01:08:55.902Z,97449.19
2022-12-09T01:11:24.759Z,97447.88
2022-12-09T01:13:51.449Z,97450.81
2022-12-09T01:16:22.425Z,97443.38
2022-12-09T01:18:50.630Z,97449.00
2022-12-09T01:21:17.337Z,97448.47
2022-12-09T01:23:43.944Z,97447.19
2022-12-09T01:26:10.643Z,97451.19
2022-12-09T01:28:38.298Z,97446.44
2022-12-09T01:31:07.067Z,97440.88
2022-12-09T01:33:33.717Z,97448.34
2022-12-09T01:36:00.258Z,97450.50
2022-12-09T01:38:26.756Z,97448.91
2022-12-09T01:40:53.270Z,97455.31
2022-12-09T01:43:20.225Z,97450.25
2022-12-09T01:45:46.763Z,97452.13
2022-12-09T01:48:15.126Z,97450.56
2022-12-09T01:50:44.593Z,97442.06
2022-12-09T01:53:11.404Z,97441.25
2022-12-09T01:55:38.092Z,97436.22
2022-12-09T01:58:04.980Z,97437.59
2022-12-09T02:00:31.441Z,97433.31
2022-12-09T02:02:58.271Z,97432.53
2022-12-09T02:05:25.330Z,97431.22
2022-12-09T02:07:52.392Z,97431.22
2022-12-09T02:10:20.481Z,97432.28
2022-12-09T02:13:09.120Z,97434.44
2022-12-09T02:15:48.149Z,97430.19
2022-12-09T02:18:37.272Z,97436.59
2022-12-09T02:21:16.502Z,97438.22
2022-12-09T02:23:46.404Z,97438.47
2022-12-09T02:26:34.248Z,97433.75
2022-12-09T02:29:09.813Z,97434.00
2022-12-09T02:32:21.447Z,97434.03
2022-12-09T02:34:55.501Z,97430.34
2022-12-09T02:37:27.175Z,97437.00
2022-12-09T02:39:59.574Z,97426.63
2022-12-09T02:42:27.719Z,97424.22
2022-12-09T02:44:54.217Z,97424.53
2022-12-09T02:47:22.658Z,97429.34
2022-12-09T02:49:51.853Z,97429.34
2022-12-09T02:52:18.912Z,97422.66
2022-12-09T02:54:45.384Z,97416.56
2022-12-09T02:57:14.795Z,97417.88
2022-12-09T02:59:41.481Z,97418.72
2022-12-09T03:02:18.162Z,97413.66
2022-12-09T03:04:47.276Z,97411.00
2022-12-09T03:07:26.006Z,97410.19
2022-12-09T03:09:55.568Z,97407.53
2022-12-09T03:12:22.049Z,97409.41
2022-12-09T03:14:51.487Z,97412.34
2022-12-09T03:17:25.840Z,97407.59
2022-12-09T03:19:54.807Z,97403.34
2022-12-09T03:22:24.868Z,97402.81
2022-12-09T03:25:05.652Z,97404.97
2022-12-09T03:27:38.939Z,97398.31
2022-12-09T03:30:07.598Z,97406.88
2022-12-09T03:32:34.700Z,97403.94
2022-12-09T03:35:05.428Z,97405.00
2022-12-09T03:37:32.216Z,97400.16
2022-12-09T03:39:59.205Z,97401.22
2022-12-09T03:42:36.196Z,97403.59
2022-12-09T03:45:07.697Z,97402.00
2022-12-09T03:47:34.286Z,97396.69
2022-12-09T03:50:00.942Z,97396.69
2022-12-09T03:52:43.171Z,97395.41
2022-12-09T03:55:28.293Z,97390.34
2022-12-09T03:57:56.739Z,97393.78
2022-12-09T04:00:23.351Z,97397.81
2022-12-09T04:02:50.007Z,97388.25
2022-12-09T04:05:16.950Z,97389.59
2022-12-09T04:07:43.613Z,97391.19
2022-12-09T04:10:11.126Z,97386.94
2022-12-09T04:12:40.250Z,97383.78
2022-12-09T04:15:07.814Z,97381.91
2022-12-09T04:17:34.555Z,97374.22
2022-12-09T04:20:01.533Z,97386.22
2022-12-09T04:22:29.567Z,97378.53
2022-12-09T04:24:56.042Z,97376.91
2022-12-09T04:27:22.759Z,97379.88
2022-12-09T04:29:49.358Z,97374.84
2022-12-09T04:32:15.909Z,97367.41
2022-12-09T04:34:42.429Z,97367.94
2022-12-09T04:37:09.339Z,97373.25
2022-12-09T04:39:36.099Z,97364.00
2022-12-09T04:42:02.620Z,97369.59
2022-12-09T04:44:29.165Z,97364.81
2022-12-09T04:46:56.235Z,97362.94
2022-12-09T04:49:22.844Z,97359.78
2022-12-09T04:51:49.315Z,97366.94
2022-12-09T04:54:16.131Z,97364.84
2022-12-09T04:56:43.899Z,97359.00
2022-12-09T04:59:10.463Z,97368.84
2022-12-09T05:01:37.189Z,97356.91
2022-12-09T05:04:04.380Z,97364.09
2022-12-09T05:06:31.342Z,97356.38
2022-12-09T05:08:58.004Z,97361.69
2022-12-09T05:11:25.055Z,97364.34
2022-12-09T05:13:53.230Z,97369.97
2022-12-09T05:16:20.111Z,97365.19
2022-12-09T05:18:47.518Z,97364.69
2022-12-09T05:21:17.317Z,97370.78
2022-12-09T05:23:44.339Z,97363.88
2022-12-09T05:26:13.930Z,97359.66
2022-12-09T05:28:40.964Z,97360.69
2022-12-09T05:31:10.958Z,97359.91
2022-12-09T05:33:38.024Z,97353.00
2022-12-09T05:36:08.284Z,97355.66
2022-12-09T05:38:34.990Z,97363.34
2022-12-09T05:41:01.482Z,97351.41
2022-12-09T05:43:28.911Z,97361.75
2022-12-09T05:45:55.976Z,97351.41
2022-12-09T05:48:22.745Z,97360.97
2022-12-09T05:51:20.645Z,97359.09
2022-12-09T05:53:47.120Z,97361.75
2022-12-09T05:56:17.892Z,97361.75
2022-12-09T05:58:45.014Z,97356.75
2022-12-09T06:01:11.975Z,97353.00
2022-12-09T06:03:38.884Z,97356.44
2022-12-09T06:06:13.707Z,97357.00
2022-12-09T06:08:41.140Z,97351.69
2022-12-09T06:11:15.592Z,97360.94
2022-12-09T06:13:42.441Z,97357.22
2022-12-09T06:16:09.166Z,97362.28
2022-12-09T06:18:36.258Z,97356.66
2022-12-09T06:21:10.032Z,97360.91
2022-12-09T06:23:37.326Z,97362.78
2022-12-09T06:26:04.374Z,97356.16
2022-12-09T06:28:32.655Z,97370.78
2022-12-09T06:30:59.369Z,97358.56
2022-12-09T06:33:53.004Z,97351.13
2022-12-09T06:36:12.641Z,97347.97
2022-12-09T06:38:39.441Z,97352.75
2022-12-09T06:41:10.506Z,97350.38
2022-12-09T06:43:37.622Z,97362.88
2022-12-09T06:46:05.968Z,97351.69
2022-12-09T06:48:32.667Z,97361.00
2022-12-09T06:50:59.860Z,97354.91
2022-12-09T06:53:27.116Z,97350.13
2022-12-09T06:55:53.682Z,97353.03
2022-12-09T06:58:20.442Z,97356.47
2022-12-09T07:00:47.307Z,97350.88
2022-12-09T07:03:14.424Z,97346.38
2022-12-09T07:05:41.378Z,97351.69
2022-12-09T07:08:08.550Z,97353.31
2022-12-09T07:10:36.099Z,97358.84
2022-12-09T07:13:02.956Z,97363.94
2022-12-09T07:15:29.780Z,97368.69
2022-12-09T07:17:56.343Z,97369.75
2022-12-09T07:20:23.087Z,97369.75
2022-12-09T07:22:49.646Z,97371.09
2022-12-09T07:25:16.379Z,97370.31
2022-12-09T07:27:42.991Z,97376.41
2022-12-09T07:30:10.258Z,97377.22
2022-12-09T07:32:37.132Z,97373.75
2022-12-09T07:35:04.069Z,97374.28
2022-12-09T07:37:31.082Z,97372.97
2022-12-09T07:39:57.768Z,97378.03
2022-12-09T07:42:24.592Z,97375.91
2022-12-09T07:44:51.638Z,97379.88
2022-12-09T07:47:18.795Z,97374.84
2022-12-09T07:49:45.516Z,97378.03
2022-12-09T07:52:12.632Z,97380.69
2022-12-09T07:54:39.206Z,97378.75
2022-12-09T07:57:05.708Z,97374.97
2022-12-09T07:59:32.429Z,97377.91
2022-12-09T08:02:05.556Z,97379.75
2022-12-09T08:04:33.518Z,97375.50
2022-12-09T08:07:00.723Z,97383.44
2022-12-09T08:09:28.426Z,97382.31
2022-12-09T08:11:55.699Z,97380.72
2022-12-09T08:14:22.284Z,97381.03
2022-12-09T08:16:49.234Z,97381.03
2022-12-09T08:19:16.250Z,97373.28
2022-12-09T08:21:43.362Z,97376.50
2022-12-09T08:24:11.121Z,97373.03
2022-12-09T08:26:39.306Z,97382.06
2022-12-09T08:29:10.378Z,97383.94
2022-12-09T08:31:41.721Z,97388.19
2022-12-09T08:34:08.960Z,97383.94
2022-12-09T08:36:36.962Z,97391.13
2022-12-09T08:39:04.186Z,97386.63
2022-12-09T08:41:36.857Z,97390.34
2022-12-09T08:44:08.913Z,97392.50
2022-12-09T08:46:36.431Z,97385.88
2022-12-09T08:49:03.666Z,97393.81
2022-12-09T08:51:30.548Z,97391.66
2022-12-09T08:53:57.929Z,97388.88
2022-12-09T08:56:25.124Z,97389.56
2022-12-09T08:58:51.963Z,97391.66
2022-12-09T09:01:20.361Z,97387.44
2022-12-09T09:03:47.333Z,97389.06
2022-12-09T09:06:14.806Z,97393.00
2022-12-09T09:08:41.878Z,97397.31
2022-12-09T09:11:13.495Z,97395.78
2022-12-09T09:13:40.935Z,97389.16
2022-12-09T09:16:12.473Z,97396.06
2022-12-09T09:18:39.453Z,97396.31
2022-12-09T09:21:07.584Z,97391.56
2022-12-09T09:23:34.178Z,97399.34
2022-12-09T09:26:00.666Z,97392.44
2022-12-09T09:28:30.959Z,97392.38
2022-12-09T09:31:02.453Z,97391.88
2022-12-09T09:33:29.305Z,97396.09
2022-12-09T09:35:57.253Z,97400.59
2022-12-09T09:38:25.010Z,97399.25
2022-12-09T09:40:52.049Z,97398.97
2022-12-09T09:43:22.092Z,97392.63
2022-12-09T09:45:49.023Z,97391.00
2022-12-09T09:48:19.107Z,97396.59
2022-12-09T09:50:57.059Z,97392.38
2022-12-09T09:53:31.475Z,97393.44
2022-12-09T09:56:19.816Z,97389.72
2022-12-09T09:58:55.139Z,97397.72
2022-12-09T10:01:22.162Z,97395.81
2022-12-09T10:04:03.732Z,97388.06
2022-12-09T10:07:04.123Z,97391.94
2022-12-09T10:09:54.813Z,97381.72
2022-12-09T10:12:32.606Z,97381.72
2022-12-09T10:15:24.174Z,97386.03
2022-12-09T10:17:53.771Z,97383.41
2022-12-09T10:20:24.666Z,97380.50
2022-12-09T10:23:05.901Z,97377.09
2022-12-09T10:25:35.850Z,97381.13
2022-12-09T10:28:18.125Z,97383.53
2022-12-09T10:30:45.430Z,97379.78
2022-12-09T10:33:13.639Z,97376.88
2022-12-09T10:35:40.448Z,97375.03
2022-12-09T10:38:17.577Z,97371.56
2022-12-09T10:40:55.117Z,97372.66
2022-12-09T10:43:35.467Z,97372.94
2022-12-09T10:46:26.806Z,97358.06
2022-12-09T10:48:57.411Z,97367.31
2022-12-09T10:51:28.384Z,97366.53
2022-12-09T10:54:10.851Z,97373.19
2022-12-09T10:56:38.817Z,97372.66
2022-12-09T10:59:11.636Z,97368.13
2022-12-09T11:01:48.056Z,97374.47
2022-12-09T11:04:15.105Z,97369.44
2022-12-09T11:06:41.859Z,97368.13
2022-12-09T11:09:17.331Z,97370.78
2022-12-09T11:11:48.819Z,97370.53
2022-12-09T11:14:36.023Z,97369.44
2022-12-09T11:17:22.599Z,97370.28
2022-12-09T11:19:53.294Z,97368.13
2022-12-09T11:22:29.328Z,97367.28
2022-12-09T11:24:56.921Z,97371.03
2022-12-09T11:27:34.741Z,97368.06
2022-12-09T11:30:13.938Z,97368.81
2022-12-09T11:33:13.173Z,97358.69
2022-12-09T11:35:40.013Z,97360.84
2022-12-09T11:38:39.720Z,97363.75
2022-12-09T11:41:09.168Z,97363.53
2022-12-09T11:43:42.877Z,97358.75
2022-12-09T11:46:12.207Z,97353.94
2022-12-09T11:48:43.625Z,97353.72
2022-12-09T11:51:40.866Z,97354.25
2022-12-09T11:54:23.260Z,97345.09
2022-12-09T11:56:50.116Z,97351.94
2022-12-09T11:59:31.310Z,97352.66
2022-12-09T12:02:27.724Z,97356.84
2022-12-09T12:05:21.275Z,97346.44
2022-12-09T12:08:03.529Z,97345.09
2022-12-09T12:10:39.198Z,97346.16
2022-12-09T12:13:26.634Z,97350.97
2022-12-09T12:16:05.264Z,97348.53
2022-12-09T12:18:35.167Z,97335.25
2022-12-09T12:21:19.992Z,97355.34
2022-12-09T12:24:05.207Z,97356.38
2022-12-09T12:26:37.274Z,97349.97
2022-12-09T12:29:16.608Z,97348.09
2022-12-09T12:32:15.713Z,97334.63
2022-12-09T12:35:03.333Z,97343.13
2022-12-09T12:37:57.855Z,97341.25
2022-12-09T12:41:01.299Z,97332.53
2022-12-09T12:44:02.757Z,97326.47
2022-12-09T12:46:47.802Z,97336.03
2022-12-09T12:49:42.117Z,97332.75
2022-12-09T12:52:54.947Z,97324.66
2022-12-09T12:55:45.460Z,97323.53
2022-12-09T12:58:33.832Z,97324.41
2022-12-09T13:01:13.558Z,97325.06
2022-12-09T13:04:03.688Z,97323.28
2022-12-09T13:06:50.831Z,97322.72
2022-12-09T13:09:41.582Z,97317.59
2022-12-09T13:12:14.346Z,97326.88
2022-12-09T13:14:55.015Z,97322.50
2022-12-09T13:17:23.383Z,97318.81
2022-12-09T13:19:54.489Z,97313.00
2022-12-09T13:22:30.888Z,97320.72
2022-12-09T13:25:05.046Z,97316.78
2022-12-09T13:27:40.623Z,97311.84
2022-12-09T13:30:39.608Z,97311.16
2022-12-09T13:33:50.695Z,97299.59
2022-12-09T13:36:23.087Z,97302.47
2022-12-09T13:38:49.552Z,97306.03
2022-12-09T13:41:31.221Z,97297.22
2022-12-09T13:44:05.373Z,97307.25
2022-12-09T13:46:32.002Z,97295.75
2022-12-09T13:48:58.833Z,97305.09
2022-12-09T13:51:27.448Z,97300.06
2022-12-09T13:54:02.277Z,97303.00
2022-12-09T13:56:32.884Z,97305.97
2022-12-09T13:59:24.188Z,97309.16
2022-12-09T14:02:10.728Z,97313.31
2022-12-09T14:04:43.308Z,97305.00
2022-12-09T14:07:21.860Z,97311.94
2022-12-09T14:09:54.321Z,97311.44
2022-12-09T14:12:26.795Z,97313.09
2022-12-09T14:15:05.477Z,97308.47
2022-12-09T14:17:34.833Z,97306.50
2022-12-09T14:20:21.342Z,97310.53
2022-12-09T14:23:12.157Z,97309.72
2022-12-09T14:25:38.482Z,97311.59
2022-12-09T14:28:14.089Z,97311.09
2022-12-09T14:30:40.542Z,97307.13
2022-12-09T14:33:42.874Z,97302.94
2022-12-09T14:36:15.057Z,97313.41
2022-12-09T14:42:04.078Z,97298.88
2022-12-09T14:44:33.401Z,97302.25
2022-12-09T14:47:18.865Z,97298.56
2022-12-09T14:49:49.067Z,97301.84
2022-12-09T14:52:29.471Z,97306.66
2022-12-09T14:54:57.653Z,97304.78
2022-12-09T14:57:33.600Z,97307.50
2022-12-09T15:00:00.050Z,97314.72
2022-12-09T15:02:30.007Z,97319.56
2022-12-09T15:04:59.797Z,97309.97
2022-12-09T15:07:33.327Z,97310.25
2022-12-09T15:10:08.788Z,97325.44
2022-12-09T15:12:36.997Z,97317.44
2022-12-09T15:15:17.558Z,97319.63
2022-12-09T15:18:01.591Z,97320.19
2022-12-09T15:20:36.355Z,97319.16
2022-12-09T15:23:12.202Z,97322.44
2022-12-09T15:25:49.771Z,97322.22
2022-12-09T15:28:22.928Z,97331.53
2022-12-09T15:30:58.286Z,97326.50
2022-12-09T15:33:25.049Z,97320.16
2022-12-09T15:36:06.946Z,97328.47
2022-12-09T15:38:40.709Z,97324.41
2022-12-09T15:41:27.214Z,97320.91
2022-12-09T15:43:55.302Z,97321.34
2022-12-09T15:46:22.001Z,97325.81
2022-12-09T15:48:49.782Z,97324.03
2022-12-09T15:51:18.273Z,97328.34
2022-12-09T15:54:06.233Z,97328.81
2022-12-09T15:56:35.735Z,97330.28
2022-12-09T15:59:14.703Z,97333.47
2022-12-09T16:01:42.148Z,97332.94
2022-12-09T16:04:08.670Z,97334.91
2022-12-09T16:06:36.382Z,97335.44
2022-12-09T16:09:03.158Z,97331.00
2022-12-09T16:11:48.143Z,97332.88
2022-12-09T16:14:15.407Z,97333.56
2022-12-09T16:16:49.369Z,97336.34
2022-12-09T16:19:30.956Z,97339.44
2022-12-09T16:22:08.278Z,97343.63
2022-12-09T16:25:06.116Z,97334.09
2022-12-09T16:27:24.877Z,97328.56
2022-12-09T16:29:56.032Z,97331.72
2022-12-09T16:32:31.541Z,97340.91
2022-12-09T16:35:11.923Z,97335.34
2022-12-09T16:37:39.943Z,97330.00
2022-12-09T16:40:21.696Z,97334.88
2022-12-09T16:42:48.559Z,97333.00
2022-12-09T16:45:36.827Z,97333.09
2022-12-09T16:48:03.502Z,97332.31
2022-12-09T16:50:34.231Z,97323.19
2022-12-09T16:53:00.787Z,97323.72
2022-12-09T16:55:31.180Z,97326.84
2022-12-09T16:57:58.331Z,97323.09
2022-12-09T17:00:24.885Z,97336.16
2022-12-09T17:02:58.958Z,97336.75
2022-12-09T17:05:25.329Z,97333.78
2022-12-09T17:07:51.828Z,97342.09
2022-12-09T17:10:18.300Z,97338.63
2022-12-09T17:12:44.974Z,97343.31
2022-12-09T17:15:15.689Z,97340.91
2022-12-09T17:17:48.208Z,97342.59
2022-12-09T17:20:15.213Z,97341.81
2022-12-09T17:22:41.738Z,97341.31
2022-12-09T17:25:10.158Z,97341.91
2022-12-09T17:27:36.840Z,97344.00
2022-12-09T17:30:04.124Z,97346.16
2022-12-09T17:32:30.614Z,97341.44
2022-12-09T17:34:57.228Z,97339.84
2022-12-09T17:37:23.718Z,97356.94
2022-12-09T17:39:55.610Z,97350.03
2022-12-09T17:42:23.597Z,97335.88
2022-12-09T17:44:50.048Z,97343.91
2022-12-09T17:47:16.509Z,97342.31
2022-12-09T17:49:42.945Z,97359.44
2022-12-09T17:52:09.473Z,97352.81
2022-12-09T17:54:35.934Z,97354.22
2022-12-09T17:57:02.427Z,97360.13
2022-12-09T17:59:28.874Z,97361.03
2022-12-09T18:01:55.373Z,97358.25
2022-12-09T18:04:21.874Z,97352.59
2022-12-09T18:06:48.878Z,97357.16
2022-12-09T18:09:16.708Z,97363.09
2022-12-09T18:11:43.247Z,97363.78
2022-12-09T18:14:10.140Z,97365.69
2022-12-09T18:16:37.076Z,97363.59
2022-12-09T18:19:04.679Z,97366.25
2022-12-09T18:21:32.363Z,97364.38
2022-12-09T18:23:58.814Z,97369.41
2022-12-09T18:26:30.511Z,97369.72
2022-12-09T18:28:58.574Z,97365.78
2022-12-09T18:31:25.167Z,97375.38
2022-12-09T18:33:52.102Z,97369.72
2022-12-09T18:36:21.172Z,97373.19
2022-12-09T18:38:47.842Z,97366.56
2022-12-09T18:41:16.235Z,97375.38
2022-12-09T18:43:43.529Z,97370.03
2022-12-09T18:46:12.440Z,97372.19
2022-12-09T18:48:39.399Z,97376.75
2022-12-09T18:51:08.624Z,97375.16
2022-12-09T18:53:35.155Z,97377.03
2022-12-09T18:56:05.191Z,97374.38
2022-12-09T18:58:57.857Z,97379.81
2022-12-09T19:01:25.046Z,97382.41
2022-12-09T19:03:53.288Z,97382.50
2022-12-09T19:06:30.371Z,97388.63
2022-12-09T19:08:58.921Z,97387.44
2022-12-09T19:11:28.124Z,97396.34
2022-12-09T19:13:54.686Z,97387.81
2022-12-09T19:16:21.330Z,97390.59
2022-12-09T19:18:47.795Z,97386.44
2022-12-09T19:21:16.772Z,97384.75
2022-12-09T19:23:44.082Z,97383.34
2022-12-09T19:26:15.071Z,97388.00
2022-12-09T19:28:49.060Z,97380.88
2022-12-09T19:31:16.249Z,97382.66
2022-12-09T19:33:42.790Z,97381.66
2022-12-09T19:36:09.860Z,97382.63
2022-12-09T19:38:36.343Z,97379.56
2022-12-09T19:41:02.855Z,97383.69
2022-12-09T19:43:29.410Z,97389.91
2022-12-09T19:45:56.013Z,97389.34
2022-12-09T19:48:22.527Z,97396.19
2022-12-09T19:50:49.128Z,97400.84
2022-12-09T19:53:15.584Z,97400.66
2022-12-09T19:55:42.035Z,97396.09
2022-12-09T19:58:08.984Z,97400.25
2022-12-09T20:00:41.463Z,97393.19
2022-12-09T20:03:08.374Z,97400.13
2022-12-09T20:05:34.884Z,97400.75
2022-12-09T20:08:01.394Z,97404.91
2022-12-09T20:10:27.888Z,97405.00
2022-12-09T20:12:54.349Z,97405.91
2022-12-09T20:15:20.806Z,97407.81
2022-12-09T20:17:47.260Z,97405.28
2022-12-09T20:20:13.712Z,97410.47
2022-12-09T20:22:40.198Z,97408.88
2022-12-09T20:25:06.968Z,97402.13
2022-12-09T20:27:34.034Z,97402.75
2022-12-09T20:30:00.481Z,97406.31
2022-12-09T20:32:29.751Z,97404.53
2022-12-09T20:34:56.275Z,97410.69
2022-12-09T20:37:22.817Z,97398.72
2022-12-09T20:39:49.282Z,97403.28
2022-12-09T20:42:15.782Z,97408.94
2022-12-09T20:44:42.238Z,97409.22
2022-12-09T20:47:08.792Z,97408.25
2022-12-09T20:49:35.241Z,97411.72
2022-12-09T20:52:01.735Z,97414.69
2022-12-09T20:54:28.223Z,97423.81
2022-12-09T20:56:54.753Z,97427.16
2022-12-09T20:59:21.429Z,97431.84
2022-12-09T21:01:47.871Z,97423.31
2022-12-09T21:04:14.985Z,97430.16
2022-12-09T21:06:41.663Z,97437.38
2022-12-09T21:09:10.486Z,97436.28
2022-12-09T21:11:37.153Z,97442.13
2022-12-09T21:14:04.685Z,97444.13
2022-12-09T21:16:32.267Z,97440.44
2022-12-09T21:19:01.788Z,97445.31
2022-12-09T21:21:34.553Z,97441.34
2022-12-09T21:24:01.033Z,97431.94
2022-12-09T21:26:27.623Z,97446.22
2022-12-09T21:28:54.251Z,97441.78
2022-12-09T21:31:25.307Z,97436.53
2022-12-09T21:33:53.498Z,97443.25
2022-12-09T21:36:21.837Z,97442.00
2022-12-09T21:38:48.293Z,97443.69
2022-12-09T21:41:16.358Z,97441.59
2022-12-09T21:43:43.720Z,97443.47
2022-12-09T21:46:12.423Z,97444.69
2022-12-09T21:48:39.453Z,97443.09
2022-12-09T21:51:06.049Z,97446.56
2022-12-09T21:53:32.668Z,97452.19
2022-12-09T21:56:09.482Z,97460.47
2022-12-09T21:58:35.930Z,97457.00
2022-12-09T22:01:13.609Z,97460.00
2022-12-09T22:03:40.142Z,97460.56
2022-12-09T22:06:07.289Z,97463.03
2022-12-09T22:08:34.300Z,97455.63
2022-12-09T22:11:00.841Z,97468.69
2022-12-09T22:13:27.518Z,97466.09
2022-12-09T22:15:53.961Z,97472.03
2022-12-09T22:18:20.421Z,97471.34
2022-12-09T22:21:23.193Z,97469.25
2022-12-09T22:23:33.600Z,97468.75
2022-12-09T22:26:00.177Z,97466.75
2022-12-09T22:28:28.283Z,97469.50
2022-12-09T22:30:54.810Z,97465.56
2022-12-09T22:33:21.297Z,97463.19
2022-12-09T22:35:47.745Z,97460.28
2022-12-09T22:38:14.849Z,97465.16
2022-12-09T22:40:41.469Z,97463.06
2022-12-09T22:43:07.976Z,97465.50
2022-12-09T22:45:37.456Z,97459.94
2022-12-09T22:48:04.046Z,97470.41
2022-12-09T22:50:30.496Z,97473.16
2022-12-09T22:52:56.948Z,97469.00
2022-12-09T22:55:23.436Z,97462.34
2022-12-09T22:57:50.061Z,97463.22
2022-12-09T23:00:17.538Z,97466.50
2022-12-09T23:02:44.099Z,97465.97
2022-12-09T23:05:10.660Z,97465.47
2022-12-09T23:10:03.874Z,97472.47
2022-12-09T23:12:30.497Z,97471.16
2022-12-09T23:14:56.979Z,97464.25
2022-12-09T23:17:23.462Z,97466.69
2022-12-09T23:19:49.914Z,97466.78
2022-12-09T23:22:16.365Z,97467.06
2022-12-09T23:24:42.800Z,97469.53
2022-12-09T23:27:09.262Z,97469.03
2022-12-09T23:29:35.990Z,97466.63
2022-12-09T23:32:02.432Z,97466.16
2022-12-09T23:34:28.889Z,97468.59
2022-12-09T23:36:55.871Z,97460.88
2022-12-09T23:39:22.324Z,97466.00
2022-12-09T23:41:48.774Z,97468.97
2022-12-09T23:44:16.966Z,97464.19
2022-12-09T23:46:43.712Z,97464.44
2022-12-09T23:49:10.273Z,97465.03
2022-12-09T23:51:39.115Z,97460.78
2022-12-09T23:54:06.265Z,97462.13
2022-12-09T23:56:34.618Z,97462.41
2022-12-09T23:59:03.241Z,97463.50
